createdAt,value
2019-03-08T00:02:16.074Z,91.90
2019-03-08T00:04:44.113Z,91.70
2019-03-08T00:07:12.259Z,91.60
2019-03-08T00:09:40.307Z,91.50
2019-03-08T00:12:09.117Z,91.40
2019-03-08T00:14:37.988Z,91.40
2019-03-08T00:17:06.066Z,91.40
2019-03-08T00:19:34.102Z,91.20
2019-03-08T00:22:02.149Z,91.30
2019-03-08T00:24:30.177Z,91.50
2019-03-08T00:26:58.205Z,91.50
2019-03-08T00:29:26.311Z,91.40
2019-03-08T00:31:54.364Z,91.40
2019-03-08T00:34:23.163Z,91.70
2019-03-08T00:36:51.199Z,91.70
2019-03-08T00:39:19.301Z,91.80
2019-03-08T00:41:48.223Z,91.90
2019-03-08T00:44:16.271Z,91.90
2019-03-08T00:46:44.309Z,91.90
2019-03-08T00:49:12.420Z,91.90
2019-03-08T00:51:40.465Z,91.90
2019-03-08T00:54:09.268Z,91.80
2019-03-08T00:56:37.315Z,92.10
2019-03-08T00:59:06.146Z,92.20
2019-03-08T01:01:35.016Z,92.20
2019-03-08T01:04:03.071Z,92.30
2019-03-08T01:06:31.142Z,92.40
2019-03-08T01:08:59.215Z,92.50
2019-03-08T01:11:28.023Z,92.50
2019-03-08T01:13:56.051Z,92.50
2019-03-08T01:16:25.970Z,92.60
2019-03-08T01:18:52.125Z,92.50
2019-03-08T01:21:20.168Z,92.50
2019-03-08T01:23:48.198Z,92.60
2019-03-08T01:26:16.320Z,92.50
2019-03-08T01:28:45.131Z,92.30
2019-03-08T01:31:13.201Z,92.30
2019-03-08T01:33:41.231Z,92.40
2019-03-08T01:36:09.278Z,92.30
2019-03-08T01:38:37.318Z,92.30
2019-03-08T01:41:05.383Z,92.40
2019-03-08T01:43:33.422Z,92.40
2019-03-08T01:46:02.248Z,92.60
2019-03-08T01:48:31.021Z,92.70
2019-03-08T01:50:59.099Z,92.70
2019-03-08T01:53:27.171Z,92.60
2019-03-08T01:55:55.960Z,92.40
2019-03-08T01:58:24.027Z,92.40
2019-03-08T02:00:52.085Z,92.30
2019-03-08T02:03:20.139Z,92.20
2019-03-08T02:05:48.237Z,92.20
2019-03-08T02:08:16.282Z,92.10
2019-03-08T02:10:44.311Z,91.90
2019-03-08T02:13:12.366Z,91.90
2019-03-08T02:15:40.428Z,91.90
2019-03-08T02:18:08.491Z,91.90
2019-03-08T02:20:36.560Z,92.00
2019-03-08T02:23:04.595Z,92.10
2019-03-08T02:25:33.411Z,92.00
2019-03-08T02:28:01.494Z,92.00
2019-03-08T02:30:29.532Z,92.20
2019-03-08T02:32:58.336Z,92.10
2019-03-08T02:35:26.386Z,92.10
2019-03-08T02:37:55.204Z,92.10
2019-03-08T02:40:28.798Z,92.40
2019-03-08T02:42:56.836Z,92.10
2019-03-08T02:45:24.939Z,92.10
2019-03-08T02:47:53.024Z,92.00
2019-03-08T02:50:21.900Z,92.10
2019-03-08T02:52:49.926Z,92.00
2019-03-08T02:55:17.977Z,92.00
2019-03-08T02:57:46.008Z,91.90
2019-03-08T03:00:14.078Z,91.90
2019-03-08T03:02:42.150Z,91.80
2019-03-08T03:05:10.186Z,91.80
2019-03-08T03:07:38.986Z,92.20
2019-03-08T03:10:07.064Z,91.90
2019-03-08T03:12:35.970Z,91.90
2019-03-08T03:15:04.968Z,91.90
2019-03-08T03:17:33.001Z,91.90
2019-03-08T03:20:01.724Z,92.00
2019-03-08T03:22:30.515Z,92.30
2019-03-08T03:24:58.591Z,92.30
2019-03-08T03:27:26.747Z,92.30
2019-03-08T03:29:54.836Z,92.30
2019-03-08T03:32:22.870Z,92.40
2019-03-08T03:34:51.675Z,92.50
2019-03-08T03:37:19.719Z,92.50
2019-03-08T03:39:48.516Z,92.50
2019-03-08T03:42:16.599Z,92.50
2019-03-08T03:44:44.682Z,92.50
2019-03-08T03:47:12.723Z,92.40
2019-03-08T03:49:41.542Z,92.60
2019-03-08T03:52:09.598Z,92.60
2019-03-08T03:54:37.636Z,92.60
2019-03-08T03:57:05.683Z,92.60
2019-03-08T03:59:33.696Z,92.50
2019-03-08T04:02:01.866Z,92.50
2019-03-08T04:04:29.919Z,92.50
2019-03-08T04:06:58.027Z,92.40
2019-03-08T04:09:26.078Z,92.60
2019-03-08T04:11:54.889Z,92.60
2019-03-08T04:14:22.923Z,92.80
2019-03-08T04:16:51.008Z,92.50
2019-03-08T04:19:19.802Z,92.70
2019-03-08T04:21:48.694Z,92.70
2019-03-08T04:24:16.748Z,92.70
2019-03-08T04:26:44.856Z,92.80
2019-03-08T04:29:12.927Z,92.90
2019-03-08T04:31:41.705Z,92.90
2019-03-08T04:34:10.030Z,92.90
2019-03-08T04:36:38.074Z,92.90
2019-03-08T04:39:06.127Z,92.90
2019-03-08T04:41:34.178Z,92.90
2019-03-08T04:44:02.971Z,93.10
2019-03-08T04:46:31.016Z,93.10
2019-03-08T04:48:59.815Z,93.50
2019-03-08T04:51:28.624Z,93.30
2019-03-08T04:53:56.699Z,93.20
2019-03-08T04:56:24.743Z,93.30
2019-03-08T04:58:53.540Z,93.50
2019-03-08T05:01:21.616Z,93.50
2019-03-08T05:03:49.699Z,93.50
2019-03-08T05:06:17.764Z,93.60
2019-03-08T05:08:45.896Z,93.50
2019-03-08T05:11:13.915Z,93.50
2019-03-08T05:13:41.967Z,93.50
2019-03-08T05:16:10.016Z,93.60
2019-03-08T05:18:38.836Z,93.70
2019-03-08T05:21:06.887Z,93.70
2019-03-08T05:23:35.683Z,93.90
2019-03-08T05:26:04.578Z,93.90
2019-03-08T05:28:32.600Z,93.90
2019-03-08T05:31:00.720Z,93.90
2019-03-08T05:33:28.804Z,93.90
2019-03-08T05:35:56.977Z,93.90
2019-03-08T05:38:25.843Z,94.00
2019-03-08T05:40:53.870Z,94.00
2019-03-08T05:43:21.910Z,93.90
2019-03-08T05:45:49.959Z,93.70
2019-03-08T05:48:18.739Z,93.50
2019-03-08T05:50:46.775Z,93.50
2019-03-08T05:53:15.096Z,93.40
2019-03-08T05:55:43.482Z,93.30
2019-03-08T05:58:11.531Z,93.20
2019-03-08T06:00:40.319Z,93.20
2019-03-08T06:03:08.354Z,93.20
2019-03-08T06:05:37.904Z,93.40
2019-03-08T06:08:06.693Z,93.40
2019-03-08T06:10:34.718Z,93.40
2019-03-08T06:13:02.832Z,93.40
2019-03-08T06:15:30.910Z,93.20
2019-03-08T06:17:59.702Z,92.90
2019-03-08T06:20:27.769Z,92.90
2019-03-08T06:22:55.878Z,92.50
2019-03-08T06:25:23.912Z,92.30
2019-03-08T06:27:52.707Z,92.00
2019-03-08T06:30:20.746Z,92.00
2019-03-08T06:32:49.655Z,91.80
2019-03-08T06:35:17.696Z,91.80
2019-03-08T06:37:46.499Z,91.50
2019-03-08T06:40:14.563Z,91.50
2019-03-08T06:42:42.585Z,91.50
2019-03-08T06:45:14.167Z,91.40
2019-03-08T06:47:42.278Z,91.40
2019-03-08T06:50:10.312Z,91.40
2019-03-08T06:52:39.127Z,91.40
2019-03-08T06:55:07.167Z,91.40
2019-03-08T06:57:35.276Z,91.40
2019-03-08T07:00:03.349Z,91.00
2019-03-08T07:02:31.399Z,90.90
2019-03-08T07:05:00.306Z,90.20
2019-03-08T07:07:29.083Z,89.70
2019-03-08T07:09:57.110Z,89.70
2019-03-08T07:12:25.236Z,89.10
2019-03-08T07:14:53.272Z,88.40
2019-03-08T07:17:22.083Z,87.30
2019-03-08T07:20:00.024Z,87.30
2019-03-08T07:22:33.736Z,86.10
2019-03-08T07:25:02.596Z,85.80
2019-03-08T07:27:32.591Z,85.60
2019-03-08T07:30:01.076Z,84.30
2019-03-08T07:32:39.019Z,85.20
2019-03-08T07:35:07.051Z,85.70
2019-03-08T07:37:40.942Z,85.10
2019-03-08T07:40:27.767Z,85.90
2019-03-08T07:43:07.628Z,85.00
2019-03-08T07:45:44.201Z,86.10
2019-03-08T07:48:16.938Z,84.60
2019-03-08T07:51:02.584Z,84.00
2019-03-08T07:53:33.348Z,83.90
2019-03-08T07:56:04.106Z,82.00
2019-03-08T07:58:33.586Z,82.00
2019-03-08T08:01:17.279Z,82.00
2019-03-08T08:03:46.918Z,83.40
2019-03-08T08:06:15.552Z,83.10
2019-03-08T08:08:51.531Z,82.90
2019-03-08T08:11:20.964Z,83.50
2019-03-08T08:13:49.800Z,83.50
2019-03-08T08:16:23.746Z,83.40
2019-03-08T08:19:06.791Z,82.00
2019-03-08T08:21:34.795Z,81.90
2019-03-08T08:24:08.460Z,81.60
2019-03-08T08:26:40.056Z,81.60
2019-03-08T08:29:15.676Z,80.80
2019-03-08T08:31:45.103Z,76.80
2019-03-08T08:34:16.054Z,76.80
2019-03-08T08:36:49.775Z,76.10
2019-03-08T08:39:28.587Z,76.00
2019-03-08T08:42:08.348Z,76.60
2019-03-08T08:44:46.974Z,76.40
2019-03-08T08:47:15.635Z,75.80
2019-03-08T08:49:54.343Z,76.60
2019-03-08T08:52:19.191Z,77.10
2019-03-08T08:55:03.836Z,63.70
2019-03-08T08:57:31.866Z,63.60
2019-03-08T09:00:01.723Z,61.60
2019-03-08T09:02:29.799Z,67.00
2019-03-08T09:05:04.647Z,64.10
2019-03-08T09:07:33.451Z,62.90
2019-03-08T09:10:03.103Z,62.90
2019-03-08T09:12:39.967Z,62.50
2019-03-08T09:15:23.922Z,59.10
2019-03-08T09:17:56.725Z,55.50
2019-03-08T09:20:41.236Z,60.50
2019-03-08T09:23:10.223Z,60.20
2019-03-08T09:25:38.247Z,57.20
2019-03-08T09:28:09.007Z,58.00
2019-03-08T09:30:37.054Z,57.90
2019-03-08T09:33:11.735Z,58.20
2019-03-08T09:35:39.875Z,58.20
2019-03-08T09:38:09.968Z,61.90
2019-03-08T09:40:41.683Z,60.00
2019-03-08T09:43:09.725Z,59.40
2019-03-08T09:45:57.731Z,60.20
2019-03-08T09:48:32.288Z,58.60
2019-03-08T09:51:06.909Z,59.10
2019-03-08T09:53:37.420Z,59.10
2019-03-08T09:56:12.176Z,56.70
2019-03-08T09:58:40.213Z,56.60
2019-03-08T10:01:16.626Z,57.00
2019-03-08T10:03:46.467Z,56.90
2019-03-08T10:06:28.545Z,56.00
2019-03-08T10:08:57.504Z,56.00
2019-03-08T10:11:25.550Z,55.40
2019-03-08T10:13:54.356Z,55.70
2019-03-08T10:16:23.323Z,55.80
2019-03-08T10:19:02.035Z,53.70
2019-03-08T10:21:41.531Z,53.30
2019-03-08T10:24:12.416Z,53.40
2019-03-08T10:26:45.829Z,55.30
2019-03-08T10:29:29.799Z,55.20
2019-03-08T10:32:14.670Z,55.90
2019-03-08T10:34:44.520Z,56.50
2019-03-08T10:37:12.564Z,56.80
2019-03-08T10:42:37.463Z,56.60
2019-03-08T10:45:06.295Z,54.20
2019-03-08T10:47:35.155Z,53.50
2019-03-08T10:50:07.099Z,54.90
2019-03-08T10:52:37.730Z,55.70
2019-03-08T10:55:07.602Z,55.30
2019-03-08T10:57:36.414Z,51.00
2019-03-08T11:00:11.702Z,50.80
2019-03-08T11:02:40.684Z,50.80
2019-03-08T11:05:11.323Z,50.80
2019-03-08T11:07:54.249Z,50.50
2019-03-08T11:10:27.943Z,49.90
2019-03-08T11:12:56.589Z,47.80
2019-03-08T11:15:40.310Z,47.20
2019-03-08T11:18:15.022Z,50.80
2019-03-08T11:20:46.455Z,48.60
2019-03-08T11:26:14.967Z,50.00
2019-03-08T11:28:45.445Z,50.70
2019-03-08T11:31:13.923Z,50.70
2019-03-08T11:33:54.860Z,51.10
2019-03-08T11:36:37.786Z,50.20
2019-03-08T11:39:21.255Z,50.40
2019-03-08T11:45:02.008Z,48.10
2019-03-08T11:47:35.603Z,48.40
2019-03-08T11:50:06.257Z,49.60
2019-03-08T11:52:37.235Z,48.30
2019-03-08T11:55:06.076Z,47.90
2019-03-08T11:57:49.937Z,47.80
2019-03-08T12:00:19.241Z,48.00
2019-03-08T12:02:49.843Z,47.20
2019-03-08T12:05:35.623Z,48.00
2019-03-08T12:08:05.264Z,48.00
2019-03-08T12:10:33.764Z,48.00
2019-03-08T12:13:13.619Z,48.00
2019-03-08T12:15:59.355Z,47.10
2019-03-08T12:18:45.252Z,47.80
2019-03-08T12:21:15.335Z,46.10
2019-03-08T12:23:44.144Z,46.10
2019-03-08T12:26:30.965Z,46.10
2019-03-08T12:28:59.011Z,47.30
2019-03-08T12:31:45.881Z,47.90
2019-03-08T12:34:19.718Z,48.10
2019-03-08T12:36:52.331Z,48.90
2019-03-08T12:39:21.280Z,47.60
2019-03-08T12:42:04.986Z,48.20
2019-03-08T12:44:33.007Z,48.10
2019-03-08T12:47:13.816Z,47.10
2019-03-08T12:49:44.327Z,47.80
2019-03-08T12:52:24.192Z,48.90
2019-03-08T12:55:09.215Z,50.40
2019-03-08T12:57:37.247Z,50.50
2019-03-08T13:00:10.270Z,50.00
2019-03-08T13:05:35.268Z,49.20
2019-03-08T13:08:06.819Z,47.70
2019-03-08T13:10:35.635Z,49.60
2019-03-08T13:13:04.524Z,48.50
2019-03-08T13:15:32.591Z,48.50
2019-03-08T13:18:00.678Z,46.60
2019-03-08T13:20:28.731Z,44.70
2019-03-08T13:22:56.906Z,44.40
2019-03-08T13:25:24.978Z,45.40
2019-03-08T13:27:53.055Z,45.60
2019-03-08T13:30:21.901Z,44.30
2019-03-08T13:32:49.935Z,44.10
2019-03-08T13:35:17.991Z,45.10
2019-03-08T13:37:46.002Z,43.10
2019-03-08T13:40:14.122Z,42.30
2019-03-08T13:42:42.297Z,42.50
2019-03-08T13:45:11.091Z,41.90
2019-03-08T13:47:39.148Z,42.00
2019-03-08T13:50:07.946Z,42.70
2019-03-08T13:52:36.020Z,42.70
2019-03-08T13:55:04.799Z,43.90
2019-03-08T13:57:32.880Z,43.80
2019-03-08T14:00:00.916Z,40.60
2019-03-08T14:02:29.739Z,41.50
2019-03-08T14:04:57.804Z,41.40
2019-03-08T14:07:25.849Z,40.00
2019-03-08T14:09:53.948Z,41.60
2019-03-08T14:12:21.991Z,41.90
2019-03-08T14:14:50.072Z,42.50
2019-03-08T14:17:18.134Z,42.90
2019-03-08T14:19:46.947Z,44.00
2019-03-08T14:22:15.001Z,43.90
2019-03-08T14:24:43.039Z,44.00
2019-03-08T14:27:11.087Z,42.90
2019-03-08T14:29:40.912Z,43.00
2019-03-08T14:32:07.197Z,43.30
2019-03-08T14:34:35.236Z,43.00
2019-03-08T14:37:04.060Z,43.60
2019-03-08T14:39:32.930Z,43.70
2019-03-08T14:42:05.515Z,43.70
2019-03-08T14:44:40.714Z,42.40
2019-03-08T14:47:08.775Z,42.40
2019-03-08T14:49:36.796Z,42.00
2019-03-08T14:52:04.868Z,42.20
2019-03-08T14:54:32.915Z,41.50
2019-03-08T14:57:01.728Z,41.60
2019-03-08T14:59:29.768Z,41.60
2019-03-08T15:01:58.589Z,42.20
2019-03-08T15:04:29.357Z,42.90
2019-03-08T15:06:55.419Z,42.90
2019-03-08T15:09:23.516Z,44.00
2019-03-08T15:11:51.591Z,44.50
2019-03-08T15:14:19.668Z,45.00
2019-03-08T15:16:48.524Z,44.80
2019-03-08T15:19:15.751Z,44.70
2019-03-08T15:21:48.460Z,46.70
2019-03-08T15:24:13.458Z,50.30
2019-03-08T15:26:42.230Z,52.30
2019-03-08T15:29:11.151Z,54.10
2019-03-08T15:31:39.196Z,54.00
2019-03-08T15:34:08.113Z,55.40
2019-03-08T15:36:36.996Z,56.30
2019-03-08T15:39:05.052Z,56.30
2019-03-08T15:41:33.079Z,57.20
2019-03-08T15:44:01.139Z,58.00
2019-03-08T15:46:29.494Z,58.40
2019-03-08T15:48:57.564Z,58.60
2019-03-08T15:51:26.754Z,59.00
2019-03-08T15:53:54.559Z,61.50
2019-03-08T15:56:22.466Z,61.50
2019-03-08T15:58:50.517Z,62.50
2019-03-08T16:01:18.571Z,62.20
2019-03-08T16:03:47.531Z,62.50
2019-03-08T16:06:15.576Z,62.50
2019-03-08T16:08:43.779Z,63.40
2019-03-08T16:11:11.823Z,63.20
2019-03-08T16:13:39.882Z,62.20
2019-03-08T16:16:07.899Z,62.20
2019-03-08T16:18:36.035Z,62.70
2019-03-08T16:21:04.119Z,64.30
2019-03-08T16:23:32.913Z,65.80
2019-03-08T16:26:00.976Z,65.80
2019-03-08T16:28:29.852Z,67.10
2019-03-08T16:31:03.811Z,67.10
2019-03-08T16:33:37.647Z,68.80
2019-03-08T16:36:08.256Z,68.60
2019-03-08T16:38:43.068Z,68.60
2019-03-08T16:41:11.892Z,69.10
2019-03-08T16:43:45.746Z,70.20
2019-03-08T16:46:27.217Z,70.10
2019-03-08T16:49:14.888Z,70.70
2019-03-08T16:51:43.616Z,71.10
2019-03-08T16:54:26.549Z,72.40
2019-03-08T16:56:58.210Z,74.30
2019-03-08T16:59:31.050Z,74.30
2019-03-08T17:02:15.603Z,74.70
2019-03-08T17:04:43.674Z,74.60
2019-03-08T17:07:24.428Z,74.90
2019-03-08T17:12:48.276Z,76.30
2019-03-08T17:15:22.795Z,76.20
2019-03-08T17:17:55.718Z,76.20
2019-03-08T17:20:29.556Z,76.20
2019-03-08T17:22:59.795Z,77.50
2019-03-08T17:25:38.694Z,77.50
2019-03-08T17:28:07.488Z,78.80
2019-03-08T17:30:38.901Z,78.60
2019-03-08T17:33:08.747Z,78.60
2019-03-08T17:35:56.319Z,79.00
2019-03-08T17:38:28.223Z,79.00
2019-03-08T17:44:05.137Z,80.20
2019-03-08T17:46:39.640Z,81.20
2019-03-08T17:49:13.032Z,81.10
2019-03-08T17:51:51.884Z,81.10
2019-03-08T17:54:22.295Z,82.30
2019-03-08T17:57:00.389Z,82.20
2019-03-08T17:59:30.249Z,82.20
2019-03-08T18:02:00.754Z,81.60
2019-03-08T18:04:34.520Z,81.60
2019-03-08T18:07:06.531Z,82.60
2019-03-08T18:09:38.511Z,83.30
2019-03-08T18:12:06.556Z,83.80
2019-03-08T18:14:41.169Z,84.80
2019-03-08T18:17:09.257Z,84.70
2019-03-08T18:19:38.111Z,84.70
2019-03-08T18:22:06.596Z,84.50
2019-03-08T18:24:49.627Z,84.60
2019-03-08T18:27:23.307Z,86.10
2019-03-08T18:29:53.294Z,85.70
2019-03-08T18:32:30.226Z,85.40
2019-03-08T18:34:58.800Z,85.30
2019-03-08T18:37:32.436Z,85.40
2019-03-08T18:40:05.051Z,85.30
2019-03-08T18:42:37.599Z,85.70
2019-03-08T18:45:07.444Z,86.00
2019-03-08T18:47:37.995Z,86.70
2019-03-08T18:50:08.412Z,86.60
2019-03-08T18:52:42.037Z,86.60
2019-03-08T18:55:18.963Z,86.10
2019-03-08T18:57:49.635Z,86.10
2019-03-08T19:00:24.244Z,86.70
2019-03-08T19:03:08.024Z,86.60
2019-03-08T19:05:52.620Z,87.80
2019-03-08T19:08:23.224Z,87.70
2019-03-08T19:10:51.237Z,87.30
2019-03-08T19:13:34.159Z,88.00
2019-03-08T19:16:04.762Z,88.00
2019-03-08T19:18:43.648Z,88.20
2019-03-08T19:21:12.531Z,88.70
2019-03-08T19:23:44.166Z,88.90
2019-03-08T19:26:12.740Z,89.10
2019-03-08T19:28:42.602Z,89.10
2019-03-08T19:31:11.205Z,89.80
2019-03-08T19:33:41.800Z,90.40
2019-03-08T19:36:20.656Z,90.30
2019-03-08T19:38:54.454Z,90.30
2019-03-08T19:41:24.939Z,90.10
2019-03-08T19:43:55.746Z,90.20
2019-03-08T19:46:25.711Z,90.20
2019-03-08T19:51:56.526Z,90.00
2019-03-08T19:54:35.251Z,90.00
2019-03-08T19:57:03.329Z,90.10
2019-03-08T19:59:47.254Z,90.30
2019-03-08T20:02:20.899Z,90.10
2019-03-08T20:04:49.508Z,90.10
2019-03-08T20:07:23.156Z,90.20
2019-03-08T20:09:53.915Z,90.40
2019-03-08T20:12:23.663Z,90.30
2019-03-08T20:14:53.635Z,90.30
2019-03-08T20:17:28.328Z,91.20
2019-03-08T20:19:59.220Z,91.20
2019-03-08T20:22:38.074Z,91.10
2019-03-08T20:25:06.116Z,90.80
2019-03-08T20:27:46.992Z,90.90
2019-03-08T20:30:15.067Z,90.70
2019-03-08T20:32:43.130Z,90.90
2019-03-08T20:35:14.675Z,90.80
2019-03-08T20:37:58.571Z,90.90
2019-03-08T20:40:44.331Z,90.90
2019-03-08T20:43:15.823Z,90.80
2019-03-08T20:45:46.096Z,90.60
2019-03-08T20:48:14.641Z,90.70
2019-03-08T20:50:42.707Z,90.60
2019-03-08T20:53:10.772Z,91.00
2019-03-08T20:55:38.865Z,91.00
2019-03-08T20:58:07.664Z,90.90
2019-03-08T21:00:35.780Z,90.90
2019-03-08T21:03:03.811Z,91.20
2019-03-08T21:05:31.852Z,91.00
2019-03-08T21:08:00.644Z,91.30
2019-03-08T21:10:28.715Z,91.30
2019-03-08T21:12:56.810Z,91.60
2019-03-08T21:15:25.794Z,91.90
2019-03-08T21:17:52.924Z,91.90
2019-03-08T21:20:20.993Z,92.10
2019-03-08T21:22:49.031Z,92.10
2019-03-08T21:25:17.179Z,92.30
2019-03-08T21:27:45.466Z,92.40
2019-03-08T21:30:17.217Z,92.30
2019-03-08T21:32:45.506Z,92.10
2019-03-08T21:35:13.591Z,92.20
2019-03-08T21:37:41.671Z,92.10
2019-03-08T21:40:10.622Z,92.30
2019-03-08T21:42:38.675Z,92.30
2019-03-08T21:45:07.632Z,92.20
2019-03-08T21:47:35.720Z,92.10
2019-03-08T21:50:03.752Z,92.30
2019-03-08T21:52:32.604Z,92.80
2019-03-08T21:55:00.758Z,92.70
2019-03-08T21:57:28.847Z,92.40
2019-03-08T21:59:56.869Z,92.20
2019-03-08T22:02:25.019Z,92.00
2019-03-08T22:04:53.045Z,92.00
2019-03-08T22:07:21.084Z,92.20
2019-03-08T22:09:53.780Z,92.20
2019-03-08T22:12:21.900Z,92.30
2019-03-08T22:14:50.488Z,92.10
2019-03-08T22:17:18.538Z,92.00
2019-03-08T22:19:46.556Z,92.30
2019-03-08T22:22:14.591Z,92.40
2019-03-08T22:24:42.626Z,92.30
2019-03-08T22:27:10.671Z,92.20
2019-03-08T22:29:39.563Z,92.30
2019-03-08T22:32:07.592Z,92.30
2019-03-08T22:34:35.716Z,92.30
2019-03-08T22:37:03.779Z,92.40
2019-03-08T22:39:31.857Z,92.80
2019-03-08T22:41:59.916Z,92.80
2019-03-08T22:44:28.032Z,92.90
2019-03-08T22:46:56.059Z,93.00
2019-03-08T22:49:24.104Z,93.00
2019-03-08T22:51:52.175Z,93.10
2019-03-08T22:54:20.983Z,93.20
2019-03-08T22:56:49.015Z,93.20
2019-03-08T22:59:17.060Z,93.40
2019-03-08T23:01:45.290Z,93.30
2019-03-08T23:04:14.087Z,93.30
2019-03-08T23:06:42.156Z,93.20
2019-03-08T23:09:10.200Z,93.40
2019-03-08T23:11:39.086Z,93.60
2019-03-08T23:14:07.880Z,93.50
2019-03-08T23:16:36.693Z,93.30
2019-03-08T23:19:05.589Z,93.10
2019-03-08T23:21:33.627Z,93.10
2019-03-08T23:24:02.439Z,93.00
2019-03-08T23:26:30.487Z,93.00
2019-03-08T23:28:59.301Z,93.40
2019-03-08T23:31:28.302Z,93.40
2019-03-08T23:33:57.059Z,93.50
2019-03-08T23:36:25.911Z,93.20
2019-03-08T23:38:54.048Z,93.20
2019-03-08T23:41:22.829Z,93.20
2019-03-08T23:43:50.875Z,93.20
2019-03-08T23:46:19.684Z,93.10
2019-03-08T23:48:47.727Z,93.10
2019-03-08T23:51:16.634Z,92.90
2019-03-08T23:53:44.714Z,92.90
2019-03-08T23:56:12.791Z,92.80
2019-03-08T23:58:40.855Z,92.70
